createdAt,value
2018-05-08T00:00:18.824Z,87.68
2018-05-08T00:02:46.466Z,88.18
2018-05-08T00:05:14.025Z,89.32
2018-05-08T00:07:41.641Z,90.19
2018-05-08T00:10:09.289Z,90.21
2018-05-08T00:12:36.852Z,90.30
2018-05-08T00:15:04.462Z,90.73
2018-05-08T00:17:32.021Z,91.12
2018-05-08T00:19:59.584Z,91.48
2018-05-08T00:22:27.156Z,91.83
2018-05-08T00:24:54.725Z,92.22
2018-05-08T00:27:22.295Z,92.61
2018-05-08T00:29:49.856Z,92.88
2018-05-08T00:32:17.546Z,93.21
2018-05-08T00:34:45.108Z,93.58
2018-05-08T00:37:12.669Z,93.65
2018-05-08T00:39:40.253Z,93.69
2018-05-08T00:42:07.877Z,93.72
2018-05-08T00:44:35.492Z,93.47
2018-05-08T00:47:03.052Z,93.31
2018-05-08T00:49:30.622Z,93.22
2018-05-08T00:51:58.262Z,92.93
2018-05-08T00:54:37.686Z,92.87
2018-05-08T00:57:05.256Z,92.84
2018-05-08T00:59:32.881Z,92.60
2018-05-08T01:02:00.553Z,92.44
2018-05-08T01:04:28.174Z,92.24
2018-05-08T01:06:55.732Z,91.97
2018-05-08T01:09:23.296Z,91.74
2018-05-08T01:11:50.917Z,91.53
2018-05-08T01:14:18.582Z,91.12
2018-05-08T01:16:46.253Z,90.78
2018-05-08T01:19:13.866Z,90.45
2018-05-08T01:21:41.507Z,90.18
2018-05-08T01:24:09.126Z,90.17
2018-05-08T01:26:36.752Z,90.30
2018-05-08T01:29:04.314Z,90.60
2018-05-08T01:31:31.951Z,90.95
2018-05-08T01:33:59.489Z,90.80
2018-05-08T01:36:27.070Z,90.53
2018-05-08T01:38:54.696Z,90.40
2018-05-08T01:41:22.317Z,90.06
2018-05-08T01:43:49.929Z,89.67
2018-05-08T01:46:17.540Z,89.28
2018-05-08T01:48:45.105Z,88.71
2018-05-08T01:51:12.780Z,88.44
2018-05-08T01:53:40.425Z,88.25
2018-05-08T01:56:08.022Z,88.08
2018-05-08T01:58:35.560Z,87.66
2018-05-08T02:01:03.180Z,87.38
2018-05-08T02:03:30.806Z,86.30
2018-05-08T02:05:58.363Z,86.62
2018-05-08T02:08:25.916Z,86.13
2018-05-08T02:10:53.541Z,84.80
2018-05-08T02:13:21.157Z,84.78
2018-05-08T02:15:48.720Z,84.97
2018-05-08T02:18:16.342Z,84.56
2018-05-08T02:20:43.899Z,84.47
2018-05-08T02:23:11.525Z,84.47
2018-05-08T02:25:39.089Z,84.38
2018-05-08T02:28:06.685Z,84.56
2018-05-08T02:30:34.248Z,84.20
2018-05-08T02:33:01.856Z,83.96
2018-05-08T02:35:29.412Z,84.03
2018-05-08T02:37:56.976Z,84.33
2018-05-08T02:40:24.546Z,84.84
2018-05-08T02:42:52.104Z,85.12
2018-05-08T02:45:19.672Z,85.55
2018-05-08T02:47:47.234Z,85.38
2018-05-08T02:50:14.844Z,85.41
2018-05-08T02:52:42.444Z,85.24
2018-05-08T02:55:10.051Z,85.36
2018-05-08T02:57:37.686Z,86.33
2018-05-08T03:00:05.243Z,85.88
2018-05-08T03:02:32.873Z,85.64
2018-05-08T03:05:00.538Z,85.21
2018-05-08T03:07:28.152Z,85.34
2018-05-08T03:09:55.730Z,85.23
2018-05-08T03:12:23.285Z,85.04
2018-05-08T03:14:50.914Z,85.46
2018-05-08T03:17:18.468Z,85.25
2018-05-08T03:19:46.028Z,85.27
2018-05-08T03:22:13.712Z,85.76
2018-05-08T03:24:41.308Z,85.98
2018-05-08T03:27:08.929Z,86.05
2018-05-08T03:29:36.545Z,86.22
2018-05-08T03:32:04.145Z,85.96
2018-05-08T03:34:31.767Z,86.05
2018-05-08T03:36:59.398Z,85.65
2018-05-08T03:39:26.952Z,85.15
2018-05-08T03:41:54.620Z,84.76
2018-05-08T03:44:22.237Z,84.52
2018-05-08T03:46:49.785Z,83.99
2018-05-08T03:49:17.347Z,83.75
2018-05-08T03:51:44.913Z,83.88
2018-05-08T03:54:12.502Z,84.47
2018-05-08T03:56:40.103Z,84.30
2018-05-08T03:59:07.781Z,83.57
2018-05-08T04:01:47.045Z,82.92
2018-05-08T04:04:26.631Z,82.51
2018-05-08T04:07:05.996Z,82.15
2018-05-08T04:09:33.612Z,81.97
2018-05-08T04:12:01.180Z,81.36
2018-05-08T04:14:28.763Z,80.38
2018-05-08T04:16:56.432Z,79.33
2018-05-08T04:19:24.048Z,79.15
2018-05-08T04:21:51.672Z,78.10
2018-05-08T04:24:19.306Z,77.07
2018-05-08T04:26:46.929Z,77.22
2018-05-08T04:29:14.574Z,76.45
2018-05-08T04:31:42.149Z,76.80
2018-05-08T04:34:09.726Z,77.31
2018-05-08T04:36:37.288Z,77.24
2018-05-08T04:39:05.723Z,72.06
2018-05-08T04:41:33.348Z,63.11
2018-05-08T04:44:00.964Z,56.22
2018-05-08T04:46:28.516Z,51.19
2018-05-08T04:48:56.141Z,47.94
2018-05-08T04:51:23.700Z,46.67
2018-05-08T04:53:51.325Z,48.69
2018-05-08T04:56:18.897Z,52.19
2018-05-08T04:58:46.459Z,56.17
2018-05-08T05:01:14.140Z,59.27
2018-05-08T05:03:41.724Z,60.97
2018-05-08T05:06:09.288Z,63.32
2018-05-08T05:08:36.873Z,64.31
2018-05-08T05:11:04.485Z,65.37
2018-05-08T05:13:32.151Z,66.06
2018-05-08T05:15:59.769Z,67.28
2018-05-08T05:18:27.465Z,69.40
2018-05-08T05:20:55.098Z,70.29
2018-05-08T05:23:22.717Z,70.77
2018-05-08T05:25:50.288Z,71.29
2018-05-08T05:28:17.837Z,71.33
2018-05-08T05:30:45.451Z,72.05
2018-05-08T05:33:13.016Z,72.03
2018-05-08T05:35:40.669Z,72.36
2018-05-08T05:38:08.310Z,71.93
2018-05-08T05:40:35.873Z,71.71
2018-05-08T05:43:03.508Z,70.44
2018-05-08T05:45:31.153Z,69.64
2018-05-08T05:47:58.719Z,68.40
2018-05-08T05:50:26.336Z,68.29
2018-05-08T05:52:53.964Z,68.80
2018-05-08T05:55:21.530Z,68.61
2018-05-08T05:57:49.157Z,68.08
2018-05-08T06:00:16.732Z,68.59
2018-05-08T06:02:44.307Z,68.54
2018-05-08T06:05:11.985Z,69.61
2018-05-08T06:07:39.544Z,63.57
2018-05-08T06:10:07.156Z,56.80
2018-05-08T06:12:34.785Z,51.83
2018-05-08T06:15:02.356Z,47.57
2018-05-08T06:17:29.988Z,46.26
2018-05-08T06:19:57.556Z,46.14
2018-05-08T06:22:25.112Z,49.33
2018-05-08T06:24:52.729Z,51.00
2018-05-08T06:27:20.359Z,52.69
2018-05-08T06:29:47.920Z,53.82
2018-05-08T06:32:15.484Z,51.85
2018-05-08T06:34:43.117Z,46.82
2018-05-08T06:37:10.696Z,40.44
2018-05-08T06:39:38.265Z,38.99
2018-05-08T06:42:05.834Z,38.11
2018-05-08T06:44:33.450Z,37.26
2018-05-08T06:47:01.008Z,33.98
2018-05-08T06:49:28.572Z,32.27
2018-05-08T06:51:56.140Z,30.35
2018-05-08T06:54:23.752Z,29.59
2018-05-08T06:56:51.390Z,31.14
2018-05-08T06:59:19.008Z,33.24
2018-05-08T07:01:46.623Z,34.15
2018-05-08T07:04:14.184Z,36.89
2018-05-08T07:06:41.805Z,36.34
2018-05-08T07:09:09.469Z,38.17
2018-05-08T07:11:37.029Z,40.56
2018-05-08T07:14:04.592Z,37.96
2018-05-08T07:16:32.166Z,40.16
2018-05-08T07:18:59.780Z,42.18
2018-05-08T07:21:27.409Z,45.15
2018-05-08T07:23:55.101Z,45.14
2018-05-08T07:26:22.664Z,43.90
2018-05-08T07:28:50.229Z,43.93
2018-05-08T07:31:17.831Z,44.21
2018-05-08T07:33:45.385Z,44.12
2018-05-08T07:36:12.992Z,40.47
2018-05-08T07:38:40.548Z,40.22
2018-05-08T07:41:08.109Z,37.65
2018-05-08T07:43:35.676Z,39.23
2018-05-08T07:46:03.233Z,36.35
2018-05-08T07:48:30.808Z,37.94
2018-05-08T07:50:58.420Z,40.18
2018-05-08T07:53:26.094Z,37.48
2018-05-08T07:55:53.710Z,38.16
2018-05-08T07:58:21.268Z,39.82
2018-05-08T08:00:48.832Z,37.61
2018-05-08T08:03:16.426Z,37.57
2018-05-08T08:05:44.090Z,38.26
2018-05-08T08:08:11.641Z,40.01
2018-05-08T08:10:39.254Z,40.63
2018-05-08T08:13:06.893Z,39.52
2018-05-08T08:15:34.466Z,40.47
2018-05-08T08:18:02.082Z,40.54
2018-05-08T08:20:29.640Z,41.87
2018-05-08T08:22:57.248Z,41.54
2018-05-08T08:25:24.809Z,41.96
2018-05-08T08:27:52.360Z,41.96
2018-05-08T08:30:19.929Z,40.41
2018-05-08T08:32:47.480Z,41.84
2018-05-08T08:35:15.047Z,41.04
2018-05-08T08:37:42.665Z,40.77
2018-05-08T08:40:10.333Z,40.64
2018-05-08T08:42:37.885Z,39.93
2018-05-08T08:45:05.527Z,39.10
2018-05-08T08:47:33.132Z,39.71
2018-05-08T08:50:00.692Z,40.89
2018-05-08T08:52:28.365Z,40.00
2018-05-08T08:54:55.981Z,39.85
2018-05-08T08:57:23.538Z,37.85
2018-05-08T08:59:51.109Z,39.22
2018-05-08T09:02:18.725Z,38.97
2018-05-08T09:04:46.369Z,37.54
2018-05-08T09:07:13.969Z,37.71
2018-05-08T09:09:41.582Z,37.77
2018-05-08T09:12:09.198Z,39.13
2018-05-08T09:14:36.855Z,37.13
2018-05-08T09:17:04.425Z,39.13
2018-05-08T09:19:32.010Z,38.38
2018-05-08T09:21:59.641Z,38.97
2018-05-08T09:24:27.196Z,39.53
2018-05-08T09:26:54.804Z,37.99
2018-05-08T09:29:22.364Z,38.46
2018-05-08T09:31:49.924Z,38.59
2018-05-08T09:34:17.491Z,38.34
2018-05-08T09:39:19.086Z,37.77
2018-05-08T09:41:46.640Z,39.39
2018-05-08T09:44:14.231Z,40.79
2018-05-08T09:46:41.799Z,41.62
2018-05-08T09:49:09.452Z,41.17
2018-05-08T09:51:36.961Z,41.87
2018-05-08T09:54:04.636Z,42.66
2018-05-08T09:56:32.261Z,43.82
2018-05-08T09:58:59.817Z,44.61
2018-05-08T10:01:27.436Z,40.48
2018-05-08T10:03:55.000Z,39.36
2018-05-08T10:06:22.619Z,41.79
2018-05-08T10:08:50.185Z,41.71
2018-05-08T10:11:17.757Z,40.52
2018-05-08T10:13:45.381Z,40.75
2018-05-08T10:16:12.964Z,42.11
2018-05-08T10:18:40.525Z,41.22
2018-05-08T10:21:08.161Z,41.23
2018-05-08T10:23:35.715Z,39.16
2018-05-08T10:26:03.391Z,39.11
2018-05-08T10:28:31.010Z,38.56
2018-05-08T10:30:58.678Z,41.36
2018-05-08T10:33:26.314Z,38.20
2018-05-08T10:35:53.942Z,36.07
2018-05-08T10:38:21.516Z,34.53
2018-05-08T10:40:49.076Z,35.08
2018-05-08T10:43:16.733Z,35.75
2018-05-08T10:45:44.288Z,35.40
2018-05-08T10:48:11.909Z,36.96
2018-05-08T10:50:39.533Z,34.89
2018-05-08T10:53:07.178Z,34.66
2018-05-08T10:55:34.742Z,35.91
2018-05-08T10:58:02.308Z,33.23
2018-05-08T11:00:29.936Z,32.80
2018-05-08T11:02:57.574Z,33.17
2018-05-08T11:05:25.189Z,33.93
2018-05-08T11:07:52.729Z,33.05
2018-05-08T11:10:20.290Z,32.86
2018-05-08T11:12:47.862Z,32.25
2018-05-08T11:15:15.493Z,33.66
2018-05-08T11:17:43.114Z,36.40
2018-05-08T11:20:10.677Z,41.17
2018-05-08T11:22:38.243Z,48.17
2018-05-08T11:25:05.792Z,56.25
2018-05-08T11:27:33.362Z,60.10
2018-05-08T11:30:00.939Z,64.87
2018-05-08T11:32:28.501Z,66.73
2018-05-08T11:34:56.198Z,66.91
2018-05-08T11:37:23.827Z,62.57
2018-05-08T11:39:51.389Z,60.26
2018-05-08T11:42:18.951Z,57.85
2018-05-08T11:44:46.547Z,56.88
2018-05-08T11:47:14.113Z,57.37
2018-05-08T11:49:41.711Z,56.49
2018-05-08T11:52:09.404Z,53.92
2018-05-08T11:54:37.027Z,54.41
2018-05-08T11:57:04.669Z,58.46
2018-05-08T11:59:32.241Z,58.76
2018-05-08T12:01:59.792Z,61.05
2018-05-08T12:04:27.513Z,61.48
2018-05-08T12:06:55.076Z,63.67
2018-05-08T12:09:22.624Z,62.15
2018-05-08T12:11:50.184Z,63.29
2018-05-08T12:14:17.775Z,65.21
2018-05-08T12:16:45.401Z,67.25
2018-05-08T12:19:13.021Z,66.27
2018-05-08T12:21:40.617Z,66.99
2018-05-08T12:24:08.254Z,65.41
2018-05-08T12:26:35.846Z,64.18
2018-05-08T12:29:03.421Z,62.99
2018-05-08T12:31:31.032Z,63.09
2018-05-08T12:33:58.648Z,63.28
2018-05-08T12:36:26.215Z,63.15
2018-05-08T12:38:53.849Z,61.02
2018-05-08T12:41:21.723Z,62.41
2018-05-08T12:43:49.043Z,61.56
2018-05-08T12:46:16.624Z,64.31
2018-05-08T12:48:44.180Z,63.50
2018-05-08T12:51:11.866Z,61.90
2018-05-08T12:53:39.439Z,56.51
2018-05-08T12:56:07.097Z,50.58
2018-05-08T12:58:34.651Z,45.44
2018-05-08T13:01:02.194Z,41.12
2018-05-08T13:03:29.773Z,40.79
2018-05-08T13:05:57.340Z,37.47
2018-05-08T13:08:24.962Z,38.23
2018-05-08T13:10:52.636Z,38.02
2018-05-08T13:13:20.265Z,36.56
2018-05-08T13:15:47.833Z,39.18
2018-05-08T13:18:15.395Z,38.84
2018-05-08T13:20:42.977Z,41.20
2018-05-08T13:23:10.530Z,42.61
2018-05-08T13:25:38.140Z,46.66
2018-05-08T13:28:05.732Z,44.83
2018-05-08T13:30:33.289Z,45.03
2018-05-08T13:33:00.949Z,45.23
2018-05-08T13:35:28.507Z,45.58
2018-05-08T13:37:56.085Z,46.45
2018-05-08T13:40:23.701Z,45.19
2018-05-08T13:42:51.333Z,42.91
2018-05-08T13:45:18.955Z,40.81
2018-05-08T13:47:46.532Z,39.46
2018-05-08T13:50:14.213Z,36.39
2018-05-08T13:52:41.746Z,36.33
2018-05-08T13:55:09.372Z,36.23
2018-05-08T13:57:37.005Z,36.59
2018-05-08T14:00:04.631Z,38.10
2018-05-08T14:02:32.190Z,40.26
2018-05-08T14:04:59.837Z,39.34
2018-05-08T14:07:27.465Z,38.80
2018-05-08T14:09:55.082Z,40.25
2018-05-08T14:12:22.706Z,41.04
2018-05-08T14:14:50.331Z,41.69
2018-05-08T14:17:17.945Z,43.48
2018-05-08T14:19:45.560Z,44.17
2018-05-08T14:22:13.187Z,44.76
2018-05-08T14:24:40.761Z,47.59
2018-05-08T14:27:08.497Z,48.80
2018-05-08T14:29:36.062Z,48.29
2018-05-08T14:32:03.673Z,49.51
2018-05-08T14:34:31.288Z,50.69
2018-05-08T14:36:58.857Z,51.76
2018-05-08T14:39:26.503Z,52.12
2018-05-08T14:41:54.113Z,52.78
2018-05-08T14:44:21.741Z,56.12
2018-05-08T14:46:49.403Z,57.11
2018-05-08T14:49:17.044Z,58.39
2018-05-08T14:51:44.585Z,57.87
2018-05-08T14:54:12.160Z,58.41
2018-05-08T14:56:39.753Z,55.88
2018-05-08T14:59:07.320Z,55.45
2018-05-08T15:01:34.879Z,55.83
2018-05-08T15:04:02.553Z,54.40
2018-05-08T15:06:30.180Z,51.97
2018-05-08T15:08:57.746Z,50.89
2018-05-08T15:11:25.369Z,51.21
2018-05-08T15:13:52.936Z,51.85
2018-05-08T15:16:20.501Z,51.00
2018-05-08T15:18:48.064Z,51.13
2018-05-08T15:21:15.763Z,51.97
2018-05-08T15:23:43.437Z,51.41
2018-05-08T15:26:11.000Z,49.54
2018-05-08T15:28:38.627Z,49.26
2018-05-08T15:31:06.185Z,48.85
2018-05-08T15:33:33.823Z,48.52
2018-05-08T15:36:01.393Z,49.02
2018-05-08T15:38:29.006Z,48.18
2018-05-08T15:40:56.633Z,49.17
2018-05-08T15:43:24.289Z,48.29
2018-05-08T15:45:51.860Z,48.52
2018-05-08T15:48:19.425Z,48.16
2018-05-08T15:50:47.020Z,47.82
2018-05-08T15:53:14.599Z,47.92
2018-05-08T15:55:42.249Z,49.72
2018-05-08T15:58:09.813Z,54.66
2018-05-08T16:00:37.374Z,56.09
2018-05-08T16:03:04.940Z,57.53
2018-05-08T16:05:32.568Z,58.88
2018-05-08T16:08:00.128Z,59.37
2018-05-08T16:10:27.693Z,57.60
2018-05-08T16:12:55.316Z,59.12
2018-05-08T16:15:22.873Z,59.55
2018-05-08T16:17:50.490Z,59.69
2018-05-08T16:20:18.066Z,60.26
2018-05-08T16:22:45.630Z,60.44
2018-05-08T16:25:13.255Z,60.07
2018-05-08T16:27:40.816Z,59.94
2018-05-08T16:30:08.469Z,60.00
2018-05-08T16:32:35.972Z,60.14
2018-05-08T16:35:03.543Z,60.12
2018-05-08T16:37:31.160Z,61.38
2018-05-08T16:39:58.719Z,60.19
2018-05-08T16:42:26.258Z,60.22
2018-05-08T16:44:53.885Z,60.66
2018-05-08T16:47:21.441Z,60.65
2018-05-08T16:49:49.007Z,61.05
2018-05-08T16:52:16.582Z,62.25
2018-05-08T16:54:44.188Z,62.19
2018-05-08T16:57:11.798Z,62.58
2018-05-08T16:59:39.359Z,63.66
2018-05-08T17:02:06.989Z,63.44
2018-05-08T17:04:34.635Z,63.45
2018-05-08T17:07:02.199Z,63.40
2018-05-08T17:09:29.752Z,62.55
2018-05-08T17:11:57.364Z,63.03
2018-05-08T17:14:24.921Z,63.15
2018-05-08T17:16:52.542Z,63.70
2018-05-08T17:19:20.191Z,64.25
2018-05-08T17:21:47.780Z,64.49
2018-05-08T17:24:15.403Z,64.60
2018-05-08T17:26:43.020Z,64.87
2018-05-08T17:29:10.636Z,65.29
2018-05-08T17:31:38.253Z,65.34
2018-05-08T17:34:05.869Z,65.76
2018-05-08T17:36:33.528Z,66.70
2018-05-08T17:39:01.085Z,66.98
2018-05-08T17:41:28.648Z,67.59
2018-05-08T17:43:56.208Z,68.44
2018-05-08T17:46:23.864Z,69.12
2018-05-08T17:48:51.487Z,69.48
2018-05-08T17:51:19.075Z,70.41
2018-05-08T17:53:46.641Z,72.23
2018-05-08T17:56:14.202Z,72.69
2018-05-08T17:58:41.775Z,73.24
2018-05-08T18:01:09.399Z,73.52
2018-05-08T18:03:37.072Z,74.57
2018-05-08T18:06:04.710Z,75.24
2018-05-08T18:08:32.273Z,75.90
2018-05-08T18:10:59.885Z,76.82
2018-05-08T18:13:27.525Z,77.78
2018-05-08T18:15:55.098Z,77.96
2018-05-08T18:18:22.727Z,78.60
2018-05-08T18:20:50.408Z,78.75
2018-05-08T18:23:18.023Z,79.25
2018-05-08T18:25:45.693Z,79.35
2018-05-08T18:28:13.310Z,79.65
2018-05-08T18:30:40.918Z,80.37
2018-05-08T18:33:08.480Z,80.73
2018-05-08T18:35:36.105Z,81.23
2018-05-08T18:38:03.727Z,81.18
2018-05-08T18:40:31.455Z,81.34
2018-05-08T18:42:59.082Z,81.35
2018-05-08T18:45:26.647Z,81.26
2018-05-08T18:47:54.218Z,81.04
2018-05-08T18:50:21.798Z,80.74
2018-05-08T18:52:49.442Z,80.53
2018-05-08T18:55:17.142Z,80.60
2018-05-08T18:57:44.708Z,80.33
2018-05-08T19:00:27.048Z,79.92
2018-05-08T19:02:54.620Z,79.63
2018-05-08T19:05:22.176Z,79.62
2018-05-08T19:07:49.753Z,79.91
2018-05-08T19:10:17.374Z,79.86
2018-05-08T19:12:44.944Z,79.76
2018-05-08T19:15:17.974Z,79.87
2018-05-08T19:17:45.556Z,79.58
2018-05-08T19:20:13.129Z,79.46
2018-05-08T19:22:40.703Z,79.52
2018-05-08T19:25:08.287Z,79.13
2018-05-08T19:27:35.941Z,79.00
2018-05-08T19:30:09.281Z,78.96
2018-05-08T19:32:36.865Z,78.73
2018-05-08T19:35:09.802Z,78.60
2018-05-08T19:37:43.006Z,78.28
2018-05-08T19:40:10.593Z,77.62
2018-05-08T19:42:38.195Z,77.42
2018-05-08T19:45:05.765Z,76.42
2018-05-08T19:47:33.397Z,76.52
2018-05-08T19:50:01.000Z,76.39
2018-05-08T19:52:28.667Z,76.06
2018-05-08T19:54:56.248Z,75.96
2018-05-08T19:57:23.883Z,76.22
2018-05-08T19:59:51.464Z,75.91
2018-05-08T20:02:19.037Z,76.15
2018-05-08T20:04:46.611Z,77.24
2018-05-08T20:07:14.241Z,77.72
2018-05-08T20:09:41.805Z,78.16
2018-05-08T20:12:09.419Z,78.64
2018-05-08T20:14:36.966Z,79.20
2018-05-08T20:17:04.585Z,79.39
2018-05-08T20:19:32.152Z,79.39
2018-05-08T20:21:59.712Z,79.73
2018-05-08T20:24:27.391Z,79.71
2018-05-08T20:26:54.975Z,79.80
2018-05-08T20:29:22.635Z,79.89
2018-05-08T20:31:50.185Z,80.02
2018-05-08T20:34:17.808Z,80.01
2018-05-08T20:36:45.433Z,80.19
2018-05-08T20:39:12.992Z,80.41
2018-05-08T20:41:40.625Z,80.65
2018-05-08T20:44:08.189Z,80.51
2018-05-08T20:46:35.820Z,80.52
2018-05-08T20:49:03.658Z,80.37
2018-05-08T20:51:31.229Z,80.55
2018-05-08T20:53:58.788Z,80.76
2018-05-08T20:56:26.352Z,80.81
2018-05-08T20:58:53.928Z,80.99
2018-05-08T21:01:21.522Z,81.03
2018-05-08T21:03:49.110Z,81.07
2018-05-08T21:06:16.654Z,81.67
2018-05-08T21:08:44.271Z,81.73
2018-05-08T21:11:11.861Z,81.78
2018-05-08T21:13:39.425Z,81.74
2018-05-08T21:16:07.053Z,81.71
2018-05-08T21:18:34.612Z,81.98
2018-05-08T21:21:02.200Z,82.48
2018-05-08T21:23:29.779Z,83.02
2018-05-08T21:25:57.396Z,83.56
2018-05-08T21:28:30.701Z,84.59
2018-05-08T21:31:03.841Z,85.48
2018-05-08T21:33:31.477Z,86.49
2018-05-08T21:35:59.045Z,87.17
2018-05-08T21:38:26.680Z,87.30
2018-05-08T21:40:54.244Z,87.94
2018-05-08T21:43:21.824Z,88.27
2018-05-08T21:45:49.459Z,88.36
2018-05-08T21:48:17.094Z,88.41
2018-05-08T21:50:44.724Z,88.86
2018-05-08T21:53:12.299Z,89.01
2018-05-08T21:55:39.878Z,88.97
2018-05-08T21:58:07.440Z,89.03
2018-05-08T22:00:35.012Z,89.35
2018-05-08T22:03:02.593Z,89.55
2018-05-08T22:05:30.208Z,89.47
2018-05-08T22:07:57.832Z,89.56
2018-05-08T22:10:25.412Z,89.63
2018-05-08T22:12:53.041Z,89.62
2018-05-08T22:15:20.604Z,89.67
2018-05-08T22:17:48.165Z,89.56
2018-05-08T22:20:15.764Z,89.60
2018-05-08T22:22:43.482Z,89.71
2018-05-08T22:25:11.047Z,89.67
2018-05-08T22:27:38.612Z,89.64
2018-05-08T22:30:06.179Z,89.67
2018-05-08T22:32:33.722Z,89.83
2018-05-08T22:35:01.325Z,90.08
2018-05-08T22:37:28.883Z,90.02
2018-05-08T22:39:56.500Z,89.83
2018-05-08T22:42:24.125Z,89.74
2018-05-08T22:44:51.697Z,89.64
2018-05-08T22:47:19.287Z,89.58
2018-05-08T22:49:46.914Z,89.57
2018-05-08T22:52:14.488Z,89.98
2018-05-08T22:54:42.053Z,90.87
2018-05-08T22:57:09.672Z,91.32
2018-05-08T22:59:37.289Z,91.63
2018-05-08T23:02:04.910Z,92.38
2018-05-08T23:04:32.484Z,92.58
2018-05-08T23:07:00.049Z,92.61
2018-05-08T23:09:27.686Z,92.69
2018-05-08T23:11:55.248Z,92.67
2018-05-08T23:14:22.912Z,92.67
2018-05-08T23:16:50.471Z,92.40
2018-05-08T23:19:18.033Z,91.71
2018-05-08T23:21:45.677Z,91.39
2018-05-08T23:24:13.240Z,91.25
2018-05-08T23:26:40.816Z,91.12
2018-05-08T23:29:08.380Z,91.05
2018-05-08T23:31:35.995Z,90.96
2018-05-08T23:34:03.571Z,90.88
2018-05-08T23:36:31.136Z,91.01
2018-05-08T23:38:58.769Z,90.90
2018-05-08T23:41:26.393Z,90.77
2018-05-08T23:43:53.972Z,90.72
2018-05-08T23:46:21.593Z,90.72
2018-05-08T23:48:49.229Z,90.86
2018-05-08T23:51:16.796Z,90.85
2018-05-08T23:53:44.368Z,90.87
2018-05-08T23:56:11.951Z,90.91
2018-05-08T23:58:39.518Z,90.64
